createdAt,value
2022-12-14T00:02:40.904Z,0.7
2022-12-14T00:06:11.830Z,0.6
2022-12-14T00:11:12.083Z,0.6
2022-12-14T00:16:12.379Z,0.4
2022-12-14T00:21:12.578Z,0.6
2022-12-14T00:26:12.879Z,0.4
2022-12-14T00:31:13.276Z,0.4
2022-12-14T00:36:13.556Z,0.2
2022-12-14T00:41:13.795Z,0.3
2022-12-14T00:46:14.126Z,0.6
2022-12-14T00:51:14.498Z,0.4
2022-12-14T00:56:14.748Z,0.6
2022-12-14T01:01:15.189Z,0.9
2022-12-14T01:06:15.623Z,0.9
2022-12-14T01:11:15.779Z,0.4
2022-12-14T01:16:16.101Z,0.6
2022-12-14T01:21:16.788Z,0.9
2022-12-14T01:26:16.673Z,1.1
2022-12-14T01:31:17.114Z,0.5
2022-12-14T01:36:17.468Z,0.4
2022-12-14T01:41:17.660Z,0.6
2022-12-14T01:46:18.038Z,0.5
2022-12-14T01:51:18.439Z,0.4
2022-12-14T01:56:18.631Z,0.9
2022-12-14T02:01:19.004Z,0.7
2022-12-14T02:06:19.460Z,0.3
2022-12-14T02:11:19.630Z,0.8
2022-12-14T02:16:19.999Z,0.4
2022-12-14T02:21:20.639Z,0.8
2022-12-14T02:26:20.626Z,1.0
2022-12-14T02:31:20.979Z,0.7
2022-12-14T02:36:21.427Z,0.6
2022-12-14T02:41:21.621Z,0.5
2022-12-14T02:46:21.999Z,1.2
2022-12-14T02:51:22.418Z,0.4
2022-12-14T02:56:22.579Z,0.9
2022-12-14T03:01:22.959Z,0.4
2022-12-14T03:06:23.179Z,0.3
2022-12-14T03:11:23.490Z,0.3
2022-12-14T03:16:23.847Z,0.3
2022-12-14T03:21:24.074Z,0.6
2022-12-14T03:26:24.372Z,0.4
2022-12-14T03:31:24.702Z,0.6
2022-12-14T03:36:25.026Z,0.5
2022-12-14T03:41:25.423Z,0.5
2022-12-14T03:46:25.560Z,0.2
2022-12-14T03:51:25.901Z,0.3
2022-12-14T03:56:26.165Z,0.4
2022-12-14T04:01:26.647Z,0.4
2022-12-14T04:06:26.829Z,0.7
2022-12-14T04:11:27.036Z,0.6
2022-12-14T04:16:27.473Z,0.1
2022-12-14T04:21:27.959Z,0.4
2022-12-14T04:26:27.909Z,0.2
2022-12-14T04:31:28.248Z,0.2
2022-12-14T04:36:28.564Z,0.2
2022-12-14T04:41:28.800Z,0.3
2022-12-14T04:46:29.107Z,0.4
2022-12-14T04:51:29.638Z,0.3
2022-12-14T04:56:29.731Z,0.2
2022-12-14T05:01:30.265Z,0.5
2022-12-14T05:06:30.480Z,0.2
2022-12-14T05:11:52.495Z,0.2
2022-12-14T05:16:30.886Z,0.5
2022-12-14T05:21:31.170Z,0.4
2022-12-14T05:26:31.494Z,0.4
2022-12-14T05:31:31.800Z,0.3
2022-12-14T05:36:32.133Z,0.3
2022-12-14T05:41:32.489Z,0.2
2022-12-14T05:46:32.718Z,0.8
2022-12-14T05:51:33.098Z,0.2
2022-12-14T05:56:33.429Z,0.4
2022-12-14T06:01:33.751Z,0.2
2022-12-14T06:06:34.078Z,0.8
2022-12-14T06:11:34.360Z,0.8
2022-12-14T06:16:34.575Z,0.8
2022-12-14T06:21:35.256Z,0.5
2022-12-14T06:26:35.288Z,0.7
2022-12-14T06:31:35.535Z,0.4
2022-12-14T06:36:35.859Z,0.8
2022-12-14T06:41:36.191Z,1.3
2022-12-14T06:46:36.605Z,0.8
2022-12-14T06:51:36.868Z,0.4
2022-12-14T06:56:37.109Z,0.6
2022-12-14T07:01:37.609Z,0.6
2022-12-14T07:06:38.013Z,0.3
2022-12-14T07:11:38.060Z,0.4
2022-12-14T07:16:38.396Z,0.6
2022-12-14T07:21:38.942Z,0.4
2022-12-14T07:26:38.941Z,0.6
2022-12-14T07:31:39.352Z,0.5
2022-12-14T07:36:39.639Z,0.2
2022-12-14T07:41:39.893Z,1.3
2022-12-14T07:46:40.219Z,0.5
2022-12-14T07:51:40.610Z,0.1
2022-12-14T07:56:40.780Z,0.7
2022-12-14T08:01:41.129Z,0.5
2022-12-14T08:06:41.733Z,0.5
2022-12-14T08:11:41.623Z,0.1
2022-12-14T08:16:41.872Z,0.2
2022-12-14T08:21:42.214Z,0.1
2022-12-14T08:26:42.422Z,0.1
2022-12-14T08:31:42.837Z,0.3
2022-12-14T08:36:43.132Z,0.9
2022-12-14T08:41:43.472Z,0.2
2022-12-14T08:46:43.703Z,0.3
2022-12-14T08:51:44.028Z,0.4
2022-12-14T08:56:44.329Z,1.1
2022-12-14T09:01:44.827Z,0.4
2022-12-14T09:06:45.191Z,0.4
2022-12-14T09:11:45.138Z,0.9
2022-12-14T09:16:46.235Z,0.5
2022-12-14T09:21:46.883Z,0.5
2022-12-14T09:26:47.033Z,0.4
2022-12-14T09:31:46.410Z,1.1
2022-12-14T09:36:47.909Z,0.6
2022-12-14T09:41:47.012Z,0.6
2022-12-14T09:46:47.331Z,0.6
2022-12-14T09:51:47.468Z,0.7
2022-12-14T09:56:47.772Z,0.7
2022-12-14T10:02:14.066Z,0.8
2022-12-14T10:06:48.710Z,0.8
2022-12-14T10:11:48.681Z,0.7
2022-12-14T10:16:51.987Z,1.1
2022-12-14T10:21:49.247Z,0.8
2022-12-14T10:26:50.467Z,0.8
2022-12-14T10:31:49.869Z,0.7
2022-12-14T10:36:51.718Z,0.7
2022-12-14T10:41:50.441Z,0.4
2022-12-14T10:46:50.828Z,0.6
2022-12-14T10:50:09.172Z,0.6
2022-12-14T10:51:51.076Z,0.7
2022-12-14T10:56:51.939Z,0.6
2022-12-14T11:01:52.499Z,0.6
2022-12-14T11:06:53.124Z,0.5
2022-12-14T11:09:41.251Z,0.5
2022-12-14T11:11:52.852Z,1.2
2022-12-14T11:16:52.756Z,0.5
2022-12-14T11:21:53.054Z,1.1
2022-12-14T11:26:53.200Z,0.7
2022-12-14T11:31:53.713Z,0.6
2022-12-14T11:36:53.693Z,0.5
2022-12-14T11:41:54.214Z,0.6
2022-12-14T11:46:54.810Z,0.6
2022-12-14T11:51:55.139Z,0.9
2022-12-14T11:56:55.020Z,1.0
2022-12-14T12:01:55.370Z,0.9
2022-12-14T12:07:01.381Z,1.7
2022-12-14T12:12:41.237Z,0.9
2022-12-14T12:16:56.380Z,1.2
2022-12-14T12:21:56.962Z,1.0
2022-12-14T12:26:57.467Z,1.8
2022-12-14T12:31:58.020Z,1.2
2022-12-14T12:37:25.390Z,0.8
2022-12-14T12:42:02.056Z,1.2
2022-12-14T12:47:23.977Z,0.5
2022-12-14T12:51:59.173Z,0.7
2022-12-14T12:56:58.798Z,0.7
2022-12-14T13:01:59.531Z,0.6
2022-12-14T13:06:03.709Z,0.6
2022-12-14T13:06:59.590Z,0.4
2022-12-14T13:12:04.488Z,0.7
2022-12-14T13:16:59.913Z,0.4
2022-12-14T13:22:05.227Z,0.5
2022-12-14T13:27:01.434Z,0.6
2022-12-14T13:32:00.811Z,1.5
2022-12-14T13:37:01.144Z,1.1
2022-12-14T13:42:02.150Z,1.6
2022-12-14T13:47:02.342Z,0.8
2022-12-14T13:52:02.697Z,1.4
2022-12-14T13:57:02.410Z,1.2
2022-12-14T14:02:02.986Z,1.5
2022-12-14T14:07:03.075Z,1.6
2022-12-14T14:12:03.785Z,5.7
2022-12-14T14:17:04.244Z,4.1
2022-12-14T14:22:23.247Z,2.7
2022-12-14T14:27:05.366Z,1.5
2022-12-14T14:31:13.078Z,1.5
2022-12-14T14:32:04.690Z,0.7
2022-12-14T14:37:05.054Z,0.4
2022-12-14T14:42:05.351Z,1.0
2022-12-14T14:47:07.542Z,0.6
2022-12-14T14:52:10.401Z,1.2
2022-12-14T14:57:06.416Z,1.2
2022-12-14T15:02:07.068Z,1.5
2022-12-14T15:07:06.960Z,4.7
2022-12-14T15:12:08.224Z,3.2
2022-12-14T15:17:08.034Z,2.0
2022-12-14T15:22:08.628Z,1.5
2022-12-14T15:27:09.835Z,1.0
2022-12-14T15:32:10.009Z,1.6
2022-12-14T15:37:09.467Z,2.2
2022-12-14T15:42:09.171Z,9.8
2022-12-14T15:47:10.134Z,7.0
2022-12-14T15:52:09.861Z,1.4
2022-12-14T15:57:10.142Z,1.3
2022-12-14T16:02:11.268Z,1.5
2022-12-14T16:07:11.293Z,1.5
2022-12-14T16:12:11.149Z,1.1
2022-12-14T16:17:11.838Z,3.9
2022-12-14T16:22:12.521Z,9.8
2022-12-14T16:27:12.720Z,5.9
2022-12-14T16:32:12.847Z,3.1
2022-12-14T16:37:32.065Z,2.6
2022-12-14T16:42:14.355Z,1.3
2022-12-14T16:47:13.672Z,1.4
2022-12-14T16:52:14.565Z,0.9
2022-12-14T16:57:14.721Z,1.3
2022-12-14T17:02:18.124Z,0.9
2022-12-14T17:07:15.121Z,0.7
2022-12-14T17:12:09.115Z,0.7
2022-12-14T17:12:17.319Z,0.8
2022-12-14T17:14:24.454Z,0.8
2022-12-14T17:17:16.093Z,12.6
2022-12-14T17:22:15.851Z,16.1
2022-12-14T17:27:16.384Z,4.7
2022-12-14T17:32:16.394Z,2.9
2022-12-14T17:37:17.163Z,3.6
2022-12-14T17:42:17.303Z,3.0
2022-12-14T17:47:17.272Z,2.5
2022-12-14T17:52:17.583Z,1.8
2022-12-14T17:57:18.080Z,3.7
2022-12-14T18:02:19.012Z,2.2
2022-12-14T18:07:19.029Z,1.8
2022-12-14T18:12:23.883Z,0.8
2022-12-14T18:17:19.566Z,2.4
2022-12-14T18:22:19.532Z,6.0
2022-12-14T18:27:20.576Z,1.8
2022-12-14T18:32:21.668Z,1.4
2022-12-14T18:37:23.893Z,8.2
2022-12-14T18:42:22.781Z,4.3
2022-12-14T18:47:41.265Z,7.6
2022-12-14T18:52:21.549Z,5.9
2022-12-14T18:57:22.047Z,1.5
2022-12-14T19:02:22.255Z,2.3
2022-12-14T19:07:22.529Z,4.2
2022-12-14T19:12:22.826Z,2.5
2022-12-14T19:17:23.057Z,2.2
2022-12-14T19:22:23.859Z,1.8
2022-12-14T19:27:50.837Z,1.0
2022-12-14T19:32:24.109Z,1.6
2022-12-14T19:37:24.522Z,1.0
2022-12-14T19:42:25.398Z,0.5
2022-12-14T19:47:25.155Z,0.8
2022-12-14T19:52:25.597Z,0.3
2022-12-14T19:57:26.005Z,0.3
2022-12-14T20:02:26.476Z,0.2
2022-12-14T20:07:26.594Z,0.1
2022-12-14T20:12:27.050Z,0.5
2022-12-14T20:17:27.192Z,0.5
2022-12-14T20:22:27.912Z,0.4
2022-12-14T20:27:28.259Z,0.8
2022-12-14T20:32:28.176Z,0.8
2022-12-14T20:37:28.643Z,0.7
2022-12-14T20:42:29.261Z,0.4
2022-12-14T20:47:29.150Z,0.3
2022-12-14T20:52:29.585Z,0.5
2022-12-14T20:57:29.913Z,0.4
2022-12-14T21:02:30.417Z,0.3
2022-12-14T21:07:30.379Z,0.2
2022-12-14T21:12:31.096Z,0.2
2022-12-14T21:17:31.180Z,0.3
2022-12-14T21:22:31.273Z,0.2
2022-12-14T21:27:32.459Z,0.3
2022-12-14T21:32:32.189Z,0.5
2022-12-14T21:37:32.198Z,0.1
2022-12-14T21:42:33.131Z,0.4
2022-12-14T21:47:32.806Z,0.2
2022-12-14T21:52:33.639Z,0.8
2022-12-14T21:57:33.809Z,0.3
2022-12-14T22:02:33.999Z,0.7
2022-12-14T22:07:34.279Z,0.4
2022-12-14T22:12:35.242Z,0.7
2022-12-14T22:17:34.782Z,1.3
2022-12-14T22:22:35.140Z,0.5
2022-12-14T22:27:35.878Z,0.6
2022-12-14T22:32:35.910Z,0.7
2022-12-14T22:37:36.332Z,0.5
2022-12-14T22:42:36.754Z,0.5
2022-12-14T22:47:36.968Z,0.6
2022-12-14T22:52:37.533Z,0.5
2022-12-14T22:57:37.744Z,0.2
2022-12-14T23:02:38.204Z,0.5
2022-12-14T23:07:38.752Z,0.2
2022-12-14T23:12:38.769Z,0.7
2022-12-14T23:17:39.185Z,0.9
2022-12-14T23:22:39.563Z,0.4
2022-12-14T23:27:39.682Z,0.7
2022-12-14T23:32:40.056Z,0.2
2022-12-14T23:37:40.468Z,0.2
2022-12-14T23:42:40.826Z,0.6
2022-12-14T23:47:41.102Z,0.2
2022-12-14T23:52:41.418Z,0.3
2022-12-14T23:57:41.834Z,0.4
